TF2 weather

CLOSED Pointe-au-ChĂȘne Water Aerodrome
Pointe-au-ChĂȘne, Quebec, Canada

Public forecast

Using degrees Celsius for public forecast. Weather courtesy of forecast.io.

METAR (pilot weather report)

Closest report is Montreal International (Mirabel) Airport, 29.9 nm (55.5 km) E. Retrieved 2019/05/19 18:00 UTC (52 minutes ago):

CYMX 191800Z 05007KT 010V080 25SM BKN018 BKN080 16/11 A2992 RMK CU5AC2 SLP136 DENSITY ALT 400FT

TAF (pilot weather forecast)

Closest forecast is Montreal International (Mirabel) Airport, 29.9 nm (55.5 km) E. Retrieved 2019/05/19 18:45 UTC (7 minutes ago):

TAF TAF CYMX 191742Z 1918/2018 06008KT P6SM SCT015 BKN040 TEMPO 1918/2003 BKN015 BKN040 FM200300 06010KT P6SM -SHRA SCT015 BKN030 TEMPO 2003/2007 3SM SHRA BR OVC015 PROB30 2003/2007 VRB20G30KT 11/2SM +TSRA BR BKN006 OVC030CB FM200700 VRB03KT P6SM OVC015 TEMPO 2007/2009 21/2SM -SHRA BR BKN006 OVC015 FM200900 22010KT P6SM BKN008 OVC015 FM201200 22010G20KT P6SM -SHRA OVC015 FM201600 23012G22KT P6SM BKN030 RMK NXT FCST BY 200000Z